Time;durP1;ratioP1;P1;durP2;ratioP2;P2;SDS_P1;SDS_P2;PMS_P1;PMS_P2;Temp;Humidity;BMP_temperature;BMP_pressure;BME280_temperature;BME280_humidity;BME280_pressure;Samples;Min_cycle;Max_cycle;Signal;HPM_P1;HPM_P2
2022/02/15 00:00:33;;;;;;;0.90;0.70;;;8.10;99.90;;;;;;5122474;27;20111;-73
2022/02/15 00:02:59;;;;;;;0.60;0.50;;;8.20;99.90;;;;;;5097998;28;20020;-74
2022/02/15 00:05:25;;;;;;;0.45;0.45;;;8.10;99.90;;;;;;5098100;28;20441;-78
2022/02/15 00:07:50;;;;;;;0.40;0.40;;;8.10;99.90;;;;;;5095049;28;20051;-77
2022/02/15 00:10:17;;;;;;;1.20;0.45;;;8.10;99.90;;;;;;5131462;27;20019;-78
2022/02/15 00:12:43;;;;;;;0.43;0.40;;;8.10;99.90;;;;;;5106112;28;20023;-77
2022/02/15 00:15:10;;;;;;;0.73;0.60;;;8.20;99.90;;;;;;5124907;27;20042;-77
2022/02/15 00:17:37;;;;;;;0.93;0.60;;;8.20;99.90;;;;;;5128366;27;20499;-77
2022/02/15 00:20:05;;;;;;;0.93;0.52;;;8.10;99.90;;;;;;5126394;27;20024;-77
2022/02/15 00:22:31;;;;;;;0.93;0.70;;;8.00;99.90;;;;;;5103357;28;20550;-77
2022/02/15 00:24:56;;;;;;;0.80;0.65;;;8.10;99.90;;;;;;5114582;27;20035;-78
2022/02/15 00:27:22;;;;;;;1.35;0.60;;;8.00;99.90;;;;;;5123686;27;20020;-76
2022/02/15 00:29:47;;;;;;;0.60;0.60;;;8.00;99.90;;;;;;5105301;27;20019;-77
2022/02/15 00:32:13;;;;;;;1.27;0.60;;;8.20;99.90;;;;;;5123724;27;20027;-77
2022/02/15 00:34:38;;;;;;;1.35;0.60;;;8.10;99.90;;;;;;5116537;27;20088;-77
2022/02/15 00:37:04;;;;;;;0.75;0.52;;;8.00;99.90;;;;;;5093913;27;20023;-77
2022/02/15 00:39:29;;;;;;;0.60;0.60;;;8.00;99.90;;;;;;5118335;27;20464;-77
2022/02/15 00:41:55;;;;;;;0.60;0.60;;;8.00;99.90;;;;;;5094018;27;20031;-77
2022/02/15 00:44:21;;;;;;;0.82;0.60;;;8.00;99.90;;;;;;5109469;27;20027;-78
2022/02/15 00:46:46;;;;;;;0.70;0.70;;;8.00;99.90;;;;;;5095570;27;20020;-77
2022/02/15 00:49:12;;;;;;;1.98;0.70;;;7.90;99.90;;;;;;5105680;27;20049;-78
2022/02/15 00:51:38;;;;;;;1.23;1.13;;;7.90;99.90;;;;;;5109159;27;20050;-77
2022/02/15 00:54:04;;;;;;;1.60;1.30;;;7.90;99.90;;;;;;5114537;28;20051;-78
2022/02/15 00:56:29;;;;;;;0.80;0.70;;;8.10;99.90;;;;;;5115685;27;20089;-77
2022/02/15 00:58:55;;;;;;;0.77;0.60;;;8.20;99.90;;;;;;5117240;27;20085;-77
2022/02/15 01:01:21;;;;;;;2.30;0.63;;;8.00;99.90;;;;;;5091404;28;20023;-78
2022/02/15 01:03:47;;;;;;;0.85;0.75;;;7.90;99.90;;;;;;5095434;28;20020;-78
2022/02/15 01:06:13;;;;;;;1.05;0.90;;;7.90;99.90;;;;;;5117824;27;20100;-77
2022/02/15 01:08:39;;;;;;;0.80;0.68;;;7.80;99.90;;;;;;5115753;27;20093;-77
2022/02/15 01:11:05;;;;;;;1.85;0.80;;;7.70;99.90;;;;;;5098197;28;20027;-77
2022/02/15 01:13:31;;;;;;;1.15;0.90;;;7.70;99.90;;;;;;5115341;28;20068;-78
2022/02/15 01:15:56;;;;;;;1.33;1.00;;;7.60;99.90;;;;;;5101065;28;20019;-78
2022/02/15 01:18:26;;;;;;;2.55;1.25;;;7.60;99.90;;;;;;5102228;28;20042;-77
2022/02/15 01:20:52;;;;;;;0.75;0.75;;;7.60;99.90;;;;;;5091741;28;20035;-77
2022/02/15 01:23:18;;;;;;;2.50;0.93;;;7.60;99.90;;;;;;5099744;28;20019;-77
2022/02/15 01:25:43;;;;;;;1.35;0.98;;;7.60;99.90;;;;;;5092119;28;20023;-77
2022/02/15 01:28:09;;;;;;;1.30;1.13;;;7.60;99.90;;;;;;5093318;28;20051;-77
2022/02/15 01:30:34;;;;;;;1.77;0.90;;;7.60;99.90;;;;;;5111466;28;20024;-77
2022/02/15 01:33:00;;;;;;;3.90;1.73;;;7.50;99.90;;;;;;5099407;28;20088;-77
2022/02/15 01:35:25;;;;;;;1.00;0.93;;;7.50;99.90;;;;;;5096128;28;20398;-76
2022/02/15 01:37:51;;;;;;;1.20;0.90;;;7.40;99.90;;;;;;5118368;28;20039;-76
2022/02/15 01:40:17;;;;;;;1.58;1.15;;;7.40;99.90;;;;;;5114504;27;20016;-77
2022/02/15 01:42:42;;;;;;;2.13;1.50;;;7.40;99.90;;;;;;5116865;28;20019;-77
2022/02/15 01:45:13;;;;;;;2.10;1.10;;;7.50;99.90;;;;;;5094675;28;20837;-77
2022/02/15 01:47:39;;;;;;;1.30;1.02;;;7.40;99.90;;;;;;5090500;28;20028;-77
2022/02/15 01:50:05;;;;;;;2.67;1.27;;;7.30;99.90;;;;;;5091749;28;20112;-77
2022/02/15 01:52:32;;;;;;;1.25;1.00;;;7.30;99.90;;;;;;5106033;28;20114;-77
2022/02/15 01:54:59;;;;;;;2.15;1.10;;;7.30;99.90;;;;;;5115763;28;20023;-78
2022/02/15 01:57:25;;;;;;;1.88;1.05;;;7.20;99.90;;;;;;5100271;28;20030;-77
2022/02/15 01:59:55;;;;;;;1.52;1.38;;;7.30;99.90;;;;;;5121331;28;20030;-78
2022/02/15 02:02:21;;;;;;;1.67;1.33;;;7.30;99.90;;;;;;5119652;28;20016;-79
2022/02/15 02:07:31;;;;;;;1.85;1.30;;;7.30;99.90;;;;;;5121064;28;20550;-78
2022/02/15 02:09:57;;;;;;;3.00;1.40;;;7.20;99.90;;;;;;5104102;28;20027;-78
2022/02/15 02:12:22;;;;;;;1.77;1.27;;;7.20;99.90;;;;;;5105616;28;20031;-78
2022/02/15 02:14:58;;;;;;;2.45;1.00;;;7.10;99.90;;;;;;5101652;28;20016;-77
2022/02/15 02:17:24;;;;;;;2.25;1.20;;;7.20;99.90;;;;;;5116157;28;20043;-78
2022/02/15 02:19:51;;;;;;;2.08;1.08;;;7.10;99.90;;;;;;5114710;28;20028;-77
2022/02/15 02:22:16;;;;;;;2.67;1.00;;;7.10;99.90;;;;;;5102539;28;20524;-78
2022/02/15 02:24:42;;;;;;;4.63;1.92;;;7.20;99.90;;;;;;5122923;27;20047;-78
2022/02/15 02:27:09;;;;;;;1.85;1.10;;;7.10;99.90;;;;;;5107224;27;20023;-79
2022/02/15 02:29:35;;;;;;;1.35;1.15;;;7.10;99.90;;;;;;5101162;28;20103;-78
2022/02/15 02:32:00;;;;;;;1.48;0.95;;;7.10;99.90;;;;;;5123664;27;20118;-78
2022/02/15 02:34:26;;;;;;;4.78;1.55;;;7.10;99.90;;;;;;5099181;28;20047;-78
2022/02/15 02:36:51;;;;;;;2.92;1.38;;;7.20;99.90;;;;;;5119829;27;20490;-78
2022/02/15 02:39:18;;;;;;;2.55;1.13;;;7.10;99.90;;;;;;5121954;27;20077;-77
2022/02/15 02:41:43;;;;;;;1.20;1.00;;;7.10;99.90;;;;;;5125730;27;20050;-77
2022/02/15 02:44:09;;;;;;;3.17;1.27;;;6.90;99.90;;;;;;5106880;27;20019;-77
2022/02/15 02:46:34;;;;;;;1.70;1.05;;;6.90;99.90;;;;;;5125741;27;20020;-77
2022/02/15 02:49:00;;;;;;;2.17;0.95;;;7.00;99.90;;;;;;5119800;27;20368;-77
2022/02/15 02:51:25;;;;;;;0.93;0.80;;;7.00;99.90;;;;;;5101877;28;20028;-76
2022/02/15 02:53:51;;;;;;;2.33;1.10;;;7.00;99.90;;;;;;5093368;28;20028;-79
2022/02/15 02:56:16;;;;;;;1.48;0.90;;;6.90;99.90;;;;;;5096567;27;20031;-77
2022/02/15 02:58:42;;;;;;;3.75;1.13;;;6.90;99.90;;;;;;5120975;27;20024;-77
2022/02/15 03:01:07;;;;;;;1.50;0.98;;;6.80;99.90;;;;;;5119663;27;20067;-80
2022/02/15 03:03:34;;;;;;;3.38;1.38;;;6.80;99.90;;;;;;5097332;28;20028;-79
2022/02/15 03:05:59;;;;;;;2.75;1.80;;;6.90;99.90;;;;;;5117615;27;20027;-77
2022/02/15 03:08:25;;;;;;;1.88;1.15;;;6.90;99.90;;;;;;5111131;27;20024;-77
2022/02/15 03:10:50;;;;;;;2.33;1.20;;;7.00;99.90;;;;;;5102637;28;20023;-77
2022/02/15 03:13:16;;;;;;;3.20;1.55;;;7.00;99.90;;;;;;5117139;27;20396;-78
2022/02/15 03:15:41;;;;;;;2.33;1.10;;;7.00;99.90;;;;;;5113094;27;20031;-78
2022/02/15 03:18:07;;;;;;;1.10;0.75;;;7.00;99.90;;;;;;5099237;28;20032;-77
2022/02/15 03:20:32;;;;;;;3.05;1.10;;;7.10;99.90;;;;;;5095765;28;20081;-78
2022/02/15 03:22:58;;;;;;;1.35;0.98;;;7.10;99.90;;;;;;5116680;27;20032;-77
2022/02/15 03:25:23;;;;;;;1.63;1.05;;;7.10;99.90;;;;;;5116189;27;20024;-78
2022/02/15 03:27:49;;;;;;;2.22;1.23;;;7.10;99.90;;;;;;5122411;27;20448;-78
2022/02/15 03:30:15;;;;;;;2.88;1.02;;;7.10;99.90;;;;;;5120464;27;20032;-77
2022/02/15 03:32:42;;;;;;;2.28;1.10;;;7.10;99.90;;;;;;5118227;27;20479;-79
2022/02/15 03:35:08;;;;;;;1.40;1.02;;;7.20;99.90;;;;;;5118106;27;20490;-78
2022/02/15 03:37:33;;;;;;;4.15;2.20;;;7.20;99.90;;;;;;5120293;27;20035;-78
2022/02/15 03:39:59;;;;;;;4.70;2.25;;;7.30;99.90;;;;;;5127800;27;20515;-78
2022/02/15 03:45:10;;;;;;;1.65;1.52;;;7.20;99.90;;;;;;5117833;27;20525;-78
2022/02/15 03:47:35;;;;;;;1.95;1.00;;;7.20;99.90;;;;;;5102097;27;20031;-77
2022/02/15 03:50:01;;;;;;;2.67;1.65;;;7.30;99.90;;;;;;5119047;27;20058;-77
2022/02/15 03:52:26;;;;;;;2.25;1.05;;;7.40;99.90;;;;;;5119742;27;20476;-78
2022/02/15 03:54:52;;;;;;;1.52;0.90;;;7.30;99.90;;;;;;5115202;27;20035;-78
2022/02/15 03:57:17;;;;;;;3.00;1.10;;;7.30;99.90;;;;;;5133082;27;20094;-79
2022/02/15 03:59:43;;;;;;;3.65;1.50;;;7.30;99.90;;;;;;5117164;28;20031;-77
2022/02/15 04:02:08;;;;;;;3.10;1.17;;;7.30;99.90;;;;;;5118609;27;20024;-77
2022/02/15 04:04:34;;;;;;;1.52;1.20;;;7.30;99.90;;;;;;5100636;28;20015;-78
2022/02/15 04:06:59;;;;;;;2.55;1.10;;;7.40;99.90;;;;;;5124957;27;20026;-77
2022/02/15 04:09:25;;;;;;;4.00;1.30;;;7.40;99.90;;;;;;5114178;28;20035;-77
2022/02/15 04:11:51;;;;;;;1.38;1.27;;;7.40;99.90;;;;;;5095742;28;20028;-77
2022/02/15 04:14:16;;;;;;;4.18;1.17;;;7.40;99.90;;;;;;5114773;27;20030;-77
2022/02/15 04:16:42;;;;;;;3.58;1.17;;;7.40;99.90;;;;;;5096971;28;20051;-80
2022/02/15 04:19:07;;;;;;;3.22;1.27;;;7.40;99.90;;;;;;5118937;27;20059;-78
2022/02/15 04:21:33;;;;;;;2.92;1.10;;;7.30;99.90;;;;;;5123900;27;20098;-77
2022/02/15 04:23:59;;;;;;;2.30;1.30;;;7.30;99.90;;;;;;5110836;27;20468;-78
2022/02/15 04:26:25;;;;;;;1.63;1.02;;;7.30;99.90;;;;;;5119371;27;20080;-77
2022/02/15 04:28:50;;;;;;;1.95;0.90;;;7.30;99.90;;;;;;5099804;28;20515;-78
2022/02/15 04:31:16;;;;;;;2.13;1.00;;;7.30;99.90;;;;;;5101437;27;20023;-77
2022/02/15 04:33:42;;;;;;;2.05;1.02;;;7.30;99.90;;;;;;5119090;27;20028;-77
2022/02/15 04:36:07;;;;;;;1.98;1.10;;;7.30;99.90;;;;;;5101243;27;20023;-77
2022/02/15 04:38:33;;;;;;;1.73;1.13;;;7.30;99.90;;;;;;5095558;28;20114;-78
2022/02/15 04:40:59;;;;;;;2.05;0.80;;;7.30;99.90;;;;;;5102984;27;20030;-77
2022/02/15 04:43:25;;;;;;;1.98;1.13;;;7.40;99.90;;;;;;5096805;28;20047;-77
2022/02/15 04:45:51;;;;;;;1.75;1.00;;;7.60;99.90;;;;;;5112967;27;20030;-78
2022/02/15 04:48:17;;;;;;;1.63;1.00;;;7.60;99.90;;;;;;5097974;28;20099;-78
2022/02/15 04:50:42;;;;;;;3.53;0.90;;;7.50;99.90;;;;;;5100765;28;20599;-77
2022/02/15 04:53:08;;;;;;;4.13;1.35;;;7.40;99.90;;;;;;5091608;28;20034;-78
2022/02/15 04:55:33;;;;;;;2.13;1.02;;;7.40;99.90;;;;;;5103000;28;20038;-77
2022/02/15 04:57:59;;;;;;;1.92;0.88;;;7.40;99.90;;;;;;5101271;28;20027;-78
2022/02/15 05:00:24;;;;;;;0.80;0.70;;;7.30;99.90;;;;;;5103439;28;20024;-78
2022/02/15 05:02:50;;;;;;;1.88;1.10;;;7.40;99.90;;;;;;5117841;27;20032;-77
2022/02/15 05:05:15;;;;;;;2.90;1.33;;;7.30;99.90;;;;;;5116617;27;20107;-77
2022/02/15 05:07:41;;;;;;;8.30;1.10;;;7.30;99.90;;;;;;5115838;28;20027;-78
2022/02/15 05:10:07;;;;;;;2.35;1.40;;;7.30;99.90;;;;;;5093666;28;20498;-77
2022/02/15 05:12:33;;;;;;;3.22;1.55;;;7.30;99.90;;;;;;5117629;27;20646;-77
2022/02/15 05:14:58;;;;;;;3.22;1.20;;;7.30;99.90;;;;;;5116577;28;20027;-77
2022/02/15 05:17:26;;;;;;;5.20;1.15;;;7.30;99.90;;;;;;5111613;27;20020;-77
2022/02/15 05:19:52;;;;;;;1.45;0.95;;;7.40;99.90;;;;;;5111020;28;20026;-77
2022/02/15 05:22:17;;;;;;;2.00;1.20;;;7.50;99.90;;;;;;5103849;28;20099;-78
2022/02/15 05:24:43;;;;;;;2.65;0.90;;;7.40;99.90;;;;;;5118333;27;20023;-77
2022/02/15 05:27:09;;;;;;;1.98;1.30;;;7.50;99.90;;;;;;5097262;28;20556;-77
2022/02/15 05:29:35;;;;;;;4.03;1.13;;;7.40;99.90;;;;;;5115308;28;20090;-79
2022/02/15 05:32:00;;;;;;;1.35;1.25;;;7.30;99.90;;;;;;5118171;27;20020;-78
2022/02/15 05:34:26;;;;;;;1.38;0.90;;;7.30;99.90;;;;;;5119045;27;20077;-77
2022/02/15 05:36:54;;;;;;;2.50;1.08;;;7.30;99.90;;;;;;5097782;28;20072;-77
2022/02/15 05:39:20;;;;;;;2.50;1.05;;;7.30;99.90;;;;;;5099317;28;20035;-77
2022/02/15 05:41:45;;;;;;;3.80;0.98;;;7.30;99.90;;;;;;5101447;28;20020;-76
2022/02/15 05:44:11;;;;;;;1.13;0.88;;;7.30;99.90;;;;;;5093812;28;20076;-78
2022/02/15 05:46:37;;;;;;;2.95;1.05;;;7.30;99.90;;;;;;5111012;28;20020;-78
2022/02/15 05:49:03;;;;;;;1.35;0.80;;;7.40;99.90;;;;;;5117021;28;20028;-77
2022/02/15 05:51:29;;;;;;;3.00;1.15;;;7.30;99.90;;;;;;5099599;28;20020;-77
2022/02/15 05:53:55;;;;;;;2.72;1.23;;;7.30;99.90;;;;;;5095371;28;20023;-77
2022/02/15 05:56:20;;;;;;;1.83;1.00;;;7.30;99.90;;;;;;5116774;28;20483;-77
2022/02/15 05:58:46;;;;;;;1.90;1.33;;;7.40;99.90;;;;;;5117529;28;20028;-77
2022/02/15 06:01:11;;;;;;;5.22;1.70;;;7.40;99.90;;;;;;5116497;27;20088;-78
2022/02/15 06:06:21;;;;;;;4.82;1.20;;;7.40;99.90;;;;;;5121137;27;20519;-77
2022/02/15 06:08:46;;;;;;;2.00;1.15;;;7.40;99.90;;;;;;5106517;28;20154;-77
2022/02/15 06:11:12;;;;;;;4.60;2.03;;;7.40;99.90;;;;;;5101637;28;20032;-76
2022/02/15 06:13:37;;;;;;;4.88;2.40;;;7.30;99.90;;;;;;5103938;28;20023;-77
2022/02/15 06:16:04;;;;;;;2.50;1.65;;;7.30;99.90;;;;;;5115682;27;20063;-78
2022/02/15 06:18:30;;;;;;;2.78;1.48;;;7.40;99.90;;;;;;5101536;28;20386;-77
2022/02/15 06:20:56;;;;;;;5.13;1.90;;;7.40;99.90;;;;;;5111840;27;20032;-77
2022/02/15 06:23:21;;;;;;;4.68;2.40;;;7.50;99.90;;;;;;5101465;28;20039;-77
2022/02/15 06:25:47;;;;;;;3.75;1.80;;;7.60;99.90;;;;;;5127081;27;20470;-77
2022/02/15 06:28:12;;;;;;;2.53;1.15;;;7.60;99.90;;;;;;5116366;27;20032;-77
2022/02/15 06:30:38;;;;;;;4.43;1.40;;;7.50;99.90;;;;;;5105905;28;20058;-77
2022/02/15 06:33:03;;;;;;;2.63;1.10;;;7.50;99.90;;;;;;5117426;27;20508;-77
2022/02/15 06:35:29;;;;;;;2.83;1.33;;;7.60;99.90;;;;;;5122321;27;20042;-78
2022/02/15 06:37:54;;;;;;;5.40;1.52;;;7.50;99.90;;;;;;5116853;27;20103;-78
2022/02/15 06:40:21;;;;;;;1.58;0.90;;;7.60;99.90;;;;;;5118602;27;20027;-77
2022/02/15 06:42:48;;;;;;;5.10;1.45;;;7.60;99.90;;;;;;5103829;27;20016;-77
2022/02/15 06:45:14;;;;;;;3.45;1.17;;;7.60;99.90;;;;;;5102604;28;20444;-76
2022/02/15 06:47:40;;;;;;;4.28;1.25;;;7.60;99.90;;;;;;5114465;28;20023;-77
2022/02/15 06:50:06;;;;;;;2.35;1.20;;;7.60;99.90;;;;;;5105908;27;20110;-77
2022/02/15 06:52:32;;;;;;;2.30;1.40;;;7.60;99.90;;;;;;5095928;28;20115;-78
2022/02/15 06:54:58;;;;;;;2.88;1.20;;;7.60;99.90;;;;;;5091972;28;20507;-77
2022/02/15 06:57:24;;;;;;;1.15;0.95;;;7.60;99.90;;;;;;5100929;28;20054;-77
2022/02/15 06:59:49;;;;;;;2.63;1.02;;;7.60;99.90;;;;;;5118318;27;20035;-78
2022/02/15 07:02:19;;;;;;;1.27;0.90;;;7.60;99.90;;;;;;5097857;28;20024;-76
2022/02/15 07:04:49;;;;;;;5.10;0.85;;;7.50;99.90;;;;;;5112618;28;20019;-78
2022/02/15 07:07:15;;;;;;;0.60;0.60;;;7.60;99.90;;;;;;5122744;27;20019;-77
2022/02/15 07:09:41;;;;;;;1.00;0.90;;;7.50;99.90;;;;;;5100664;28;20030;-77
2022/02/15 07:12:08;;;;;;;3.38;1.42;;;7.40;99.90;;;;;;5119542;27;20468;-77
2022/02/15 07:14:35;;;;;;;0.98;0.80;;;7.40;99.90;;;;;;5113674;27;20015;-77
2022/02/15 07:17:00;;;;;;;0.90;0.63;;;7.40;99.90;;;;;;5112456;27;20493;-76
2022/02/15 07:19:29;;;;;;;1.58;0.85;;;7.30;99.90;;;;;;5091312;28;20028;-78
2022/02/15 07:21:56;;;;;;;1.17;0.90;;;7.30;99.90;;;;;;5126687;27;20019;-77
2022/02/15 07:24:22;;;;;;;3.20;0.98;;;7.30;99.90;;;;;;5107981;27;20024;-78
2022/02/15 07:26:48;;;;;;;1.83;1.10;;;7.30;99.90;;;;;;5126573;27;20016;-78
2022/02/15 07:29:14;;;;;;;2.28;1.10;;;7.40;99.90;;;;;;5106533;27;20651;-79
2022/02/15 07:31:39;;;;;;;4.93;1.63;;;7.40;99.90;;;;;;5116213;27;20078;-77
2022/02/15 07:34:05;;;;;;;2.63;1.15;;;7.40;99.90;;;;;;5107632;27;20039;-77
2022/02/15 07:36:30;;;;;;;1.73;1.00;;;7.40;99.90;;;;;;5117531;27;20102;-78
2022/02/15 07:38:56;;;;;;;2.15;1.05;;;7.40;99.90;;;;;;5103668;27;20035;-77
2022/02/15 07:41:21;;;;;;;2.60;0.80;;;7.50;99.90;;;;;;5122133;27;20103;-77
2022/02/15 07:43:47;;;;;;;0.88;0.70;;;7.50;99.90;;;;;;5107567;27;20039;-77
2022/02/15 07:46:12;;;;;;;3.80;1.38;;;7.50;99.90;;;;;;5099140;28;20077;-78
2022/02/15 07:48:38;;;;;;;1.42;0.80;;;7.60;99.90;;;;;;5115192;27;20038;-77
2022/02/15 07:51:04;;;;;;;2.22;1.67;;;7.60;99.90;;;;;;5102519;28;20031;-79
2022/02/15 07:53:29;;;;;;;2.80;0.77;;;7.60;99.90;;;;;;5109646;27;20027;-78
2022/02/15 07:55:55;;;;;;;0.70;0.65;;;7.60;99.90;;;;;;5117732;27;20035;-77
2022/02/15 07:58:20;;;;;;;4.30;0.90;;;7.60;99.90;;;;;;5123026;27;20057;-78
2022/02/15 08:00:46;;;;;;;1.75;0.77;;;7.70;99.90;;;;;;5100391;28;20023;-78
2022/02/15 08:03:14;;;;;;;1.85;0.70;;;7.90;99.90;;;;;;5116100;27;20020;-79
2022/02/15 08:05:41;;;;;;;1.95;0.80;;;7.90;99.90;;;;;;5123745;27;20491;-78
2022/02/15 08:08:07;;;;;;;2.53;0.90;;;8.00;99.90;;;;;;5118722;27;20038;-78
2022/02/15 08:10:33;;;;;;;1.70;0.70;;;7.90;99.90;;;;;;5096676;28;20514;-78
2022/02/15 08:12:59;;;;;;;3.38;0.90;;;7.90;99.90;;;;;;5122048;27;20035;-77
2022/02/15 08:15:30;;;;;;;2.42;0.77;;;7.90;99.90;;;;;;5094448;28;20030;-78
2022/02/15 08:17:57;;;;;;;1.48;1.15;;;7.90;99.90;;;;;;5130157;27;20035;-77
2022/02/15 08:20:23;;;;;;;1.55;1.10;;;7.90;99.90;;;;;;5121603;27;20436;-78
2022/02/15 08:22:50;;;;;;;1.60;1.00;;;7.90;99.90;;;;;;5118260;27;20019;-77
2022/02/15 08:25:16;;;;;;;2.90;1.23;;;7.90;99.90;;;;;;5098438;27;20030;-77
2022/02/15 08:27:42;;;;;;;4.85;3.20;;;8.00;99.90;;;;;;5102007;27;20118;-77
2022/02/15 08:30:08;;;;;;;3.63;1.75;;;7.90;99.90;;;;;;5097479;28;20126;-78
2022/02/15 08:32:34;;;;;;;2.15;1.02;;;8.00;99.90;;;;;;5115447;27;20024;-78
2022/02/15 08:35:00;;;;;;;2.88;1.30;;;8.10;99.90;;;;;;5099888;28;20024;-78
2022/02/15 08:37:26;;;;;;;1.38;0.90;;;8.20;99.90;;;;;;5098640;28;20028;-77
2022/02/15 08:39:51;;;;;;;0.70;0.68;;;8.20;99.90;;;;;;5094338;28;20022;-79
2022/02/15 08:42:17;;;;;;;1.27;0.77;;;8.20;99.90;;;;;;5119435;27;20491;-78
2022/02/15 08:44:44;;;;;;;1.63;0.73;;;8.10;99.90;;;;;;5104404;28;20023;-77
2022/02/15 08:47:10;;;;;;;1.25;0.65;;;8.20;99.90;;;;;;5097432;27;20070;-79
2022/02/15 08:49:36;;;;;;;3.83;1.02;;;8.30;99.90;;;;;;5101274;28;20479;-78
2022/02/15 08:52:04;;;;;;;2.15;0.55;;;8.30;99.90;;;;;;5124810;27;20055;-78
2022/02/15 08:54:29;;;;;;;1.33;0.85;;;8.40;99.90;;;;;;5127749;27;20027;-77
2022/02/15 08:56:55;;;;;;;1.58;0.50;;;8.40;99.90;;;;;;5103137;27;20118;-79
2022/02/15 08:59:20;;;;;;;1.48;0.73;;;8.40;99.90;;;;;;5112340;28;20097;-77
2022/02/15 09:01:47;;;;;;;1.33;0.70;;;8.30;99.90;;;;;;5093881;28;20026;-77
2022/02/15 09:04:14;;;;;;;1.88;0.55;;;8.40;99.90;;;;;;5123962;27;20374;-77
2022/02/15 09:06:41;;;;;;;0.95;0.70;;;8.50;99.90;;;;;;5113718;27;20027;-78
2022/02/15 09:09:06;;;;;;;1.10;0.55;;;8.50;99.90;;;;;;5113133;28;20024;-77
2022/02/15 09:11:32;;;;;;;0.82;0.52;;;8.60;99.90;;;;;;5111087;28;20128;-78
2022/02/15 09:13:57;;;;;;;1.00;0.70;;;8.80;99.90;;;;;;5099957;27;20023;-80
2022/02/15 09:16:24;;;;;;;1.45;0.70;;;9.00;99.90;;;;;;5097059;28;20103;-78
2022/02/15 09:18:50;;;;;;;2.58;0.90;;;9.00;99.90;;;;;;5113448;28;20042;-78
2022/02/15 09:21:16;;;;;;;0.98;0.60;;;9.10;99.90;;;;;;5128103;28;20028;-76
2022/02/15 09:23:41;;;;;;;0.70;0.70;;;9.00;99.90;;;;;;5110067;28;20039;-77
2022/02/15 09:26:09;;;;;;;1.23;1.00;;;8.70;99.90;;;;;;5132239;28;20023;-77
2022/02/15 09:28:35;;;;;;;3.25;0.80;;;8.70;99.90;;;;;;5114496;28;20050;-77
2022/02/15 09:31:01;;;;;;;0.75;0.50;;;8.70;99.90;;;;;;5139606;27;20023;-78
2022/02/15 09:33:26;;;;;;;1.00;0.90;;;8.70;99.90;;;;;;5119904;28;20141;-80
2022/02/15 09:35:52;;;;;;;1.20;0.60;;;8.80;99.90;;;;;;5121582;27;20031;-78
2022/02/15 09:38:18;;;;;;;0.95;0.80;;;8.80;99.90;;;;;;5106661;27;20032;-78
2022/02/15 09:40:44;;;;;;;0.70;0.70;;;9.00;99.90;;;;;;5109926;28;20027;-78
2022/02/15 09:43:13;;;;;;;1.70;1.02;;;9.00;99.90;;;;;;5123599;27;20026;-79
2022/02/15 09:45:39;;;;;;;1.70;0.90;;;9.00;99.90;;;;;;5108951;28;20018;-77
2022/02/15 09:48:08;;;;;;;5.70;1.42;;;8.80;99.90;;;;;;5127846;27;20050;-78
2022/02/15 09:50:35;;;;;;;3.00;1.17;;;9.00;99.90;;;;;;5103860;27;20027;-77
2022/02/15 09:53:01;;;;;;;1.75;1.40;;;9.10;99.90;;;;;;5105834;28;20035;-77
2022/02/15 09:55:27;;;;;;;3.78;1.40;;;9.00;99.90;;;;;;5114047;27;20033;-77
2022/02/15 09:57:53;;;;;;;1.33;1.15;;;8.90;99.90;;;;;;5109738;27;20118;-78
2022/02/15 10:00:21;;;;;;;1.52;1.33;;;8.90;99.90;;;;;;5122206;28;20027;-77
2022/02/15 10:02:47;;;;;;;2.60;1.25;;;9.10;99.90;;;;;;5122460;28;20095;-76
2022/02/15 10:05:19;;;;;;;1.58;0.93;;;9.30;99.90;;;;;;5130557;27;20023;-77
2022/02/15 10:07:53;;;;;;;2.45;1.10;;;9.40;99.90;;;;;;5142066;27;20020;-76
2022/02/15 10:10:33;;;;;;;2.25;1.58;;;9.60;99.90;;;;;;5123278;28;20046;-78
2022/02/15 10:13:03;;;;;;;4.20;1.38;;;9.60;99.90;;;;;;5134865;27;20012;-77
2022/02/15 10:15:38;;;;;;;1.02;0.93;;;9.80;99.90;;;;;;5123823;28;20015;-78
2022/02/15 10:18:19;;;;;;;2.70;1.23;;;9.90;99.90;;;;;;5135513;27;20028;-77
2022/02/15 10:20:46;;;;;;;;;;;9.80;99.90;;;;;;5130765;27;20031;-77
2022/02/15 10:23:19;;;;;;;1.20;1.10;;;9.80;99.90;;;;;;5141669;27;19975;-77
2022/02/15 10:25:46;;;;;;;1.42;1.25;;;9.70;99.90;;;;;;5116114;27;20118;-77
2022/02/15 10:28:16;;;;;;;1.20;1.00;;;9.60;99.90;;;;;;5099264;28;20032;-78
2022/02/15 10:30:49;;;;;;;2.05;1.30;;;9.30;99.90;;;;;;5123635;27;20042;-78
2022/02/15 10:33:15;;;;;;;3.28;1.27;;;9.10;99.90;;;;;;5121397;28;20016;-78
2022/02/15 10:35:55;;;;;;;1.20;1.10;;;9.20;99.90;;;;;;5121234;28;20019;-78
2022/02/15 10:38:32;;;;;;;4.10;1.10;;;9.20;99.90;;;;;;5117616;28;20094;-78
2022/02/15 10:41:28;;;;;;;1.95;1.20;;;9.30;99.90;;;;;;5128481;28;20035;-77
2022/02/15 10:43:56;;;;;;;1.90;1.35;;;9.30;99.90;;;;;;5144340;27;20039;-77
2022/02/15 10:46:25;;;;;;;2.10;1.40;;;9.10;99.90;;;;;;5127015;28;20007;-77
2022/02/15 10:48:52;;;;;;;2.00;1.33;;;9.10;99.90;;;;;;5114002;27;20042;-79
2022/02/15 10:51:18;;;;;;;3.00;1.15;;;9.20;99.90;;;;;;5106791;27;20088;-77
2022/02/15 10:53:44;;;;;;;2.03;1.00;;;9.00;99.90;;;;;;5122621;27;20023;-78
2022/02/15 10:56:10;;;;;;;1.92;1.10;;;8.90;99.90;;;;;;5112752;27;20084;-78
2022/02/15 10:58:37;;;;;;;2.45;1.10;;;8.90;99.90;;;;;;5112977;28;20024;-75
2022/02/15 11:01:09;;;;;;;4.05;1.20;;;9.00;99.90;;;;;;5104307;28;20443;-76
2022/02/15 11:03:37;;;;;;;1.27;0.80;;;9.10;99.90;;;;;;5122243;27;20081;-74
2022/02/15 11:06:04;;;;;;;3.17;1.05;;;9.20;99.90;;;;;;5121381;27;20039;-75
2022/02/15 11:08:31;;;;;;;2.15;0.80;;;9.20;99.90;;;;;;5116709;28;20161;-75
2022/02/15 11:11:10;;;;;;;4.05;1.20;;;9.10;99.90;;;;;;5119386;27;20498;-76
2022/02/15 11:13:37;;;;;;;3.08;1.02;;;9.00;99.90;;;;;;5103975;28;20034;-76
2022/02/15 11:16:17;;;;;;;1.58;0.90;;;8.80;99.90;;;;;;5123207;27;20024;-76
2022/02/15 11:18:44;;;;;;;2.25;1.30;;;8.80;99.90;;;;;;5089787;28;20156;-78
2022/02/15 11:21:23;;;;;;;2.00;1.20;;;8.80;99.90;;;;;;5097989;28;20026;-78
2022/02/15 11:23:58;;;;;;;1.52;1.40;;;8.80;99.90;;;;;;5112229;27;20039;-79
2022/02/15 11:26:31;;;;;;;2.85;1.20;;;8.70;99.90;;;;;;5100398;28;20386;-80
2022/02/15 11:28:56;;;;;;;2.53;1.10;;;8.70;99.90;;;;;;5099050;28;20406;-78
2022/02/15 11:31:40;;;;;;;4.22;1.30;;;8.70;99.90;;;;;;5104843;27;20043;-77
2022/02/15 11:34:07;;;;;;;2.08;1.33;;;8.60;99.90;;;;;;5103852;28;20019;-79
2022/02/15 11:36:44;;;;;;;1.45;1.10;;;8.60;99.90;;;;;;5118516;27;20371;-76
2022/02/15 11:39:17;;;;;;;1.95;1.02;;;8.70;99.90;;;;;;5118578;27;20398;-76
2022/02/15 11:41:49;;;;;;;1.88;1.10;;;8.60;99.90;;;;;;5113271;27;20378;-78
2022/02/15 11:44:15;;;;;;;1.50;0.90;;;8.60;99.90;;;;;;5096552;28;20023;-77
2022/02/15 11:46:45;;;;;;;2.20;1.98;;;8.60;99.90;;;;;;5120003;27;20547;-73
2022/02/15 11:49:18;;;;;;;1.38;1.00;;;8.60;99.90;;;;;;5104537;27;20107;-73
2022/02/15 11:51:46;;;;;;;1.55;0.98;;;8.60;99.90;;;;;;5120380;27;20027;-73
2022/02/15 11:54:13;;;;;;;1.52;1.35;;;8.70;99.90;;;;;;5116029;27;20034;-72
2022/02/15 11:56:43;;;;;;;1.45;1.10;;;8.70;99.90;;;;;;5122160;27;20502;-75
2022/02/15 11:59:20;;;;;;;2.42;0.93;;;8.70;99.90;;;;;;5113408;27;20023;-74
2022/02/15 12:01:57;;;;;;;1.15;0.88;;;8.70;99.90;;;;;;5115785;27;20051;-73
2022/02/15 12:04:23;;;;;;;4.22;0.93;;;8.80;99.90;;;;;;5111464;28;20011;-73
2022/02/15 12:06:49;;;;;;;1.77;0.80;;;8.80;99.90;;;;;;5103063;27;20024;-74
2022/02/15 12:09:15;;;;;;;1.48;1.20;;;8.90;99.90;;;;;;5091552;28;20038;-74
2022/02/15 12:11:43;;;;;;;2.92;1.15;;;8.90;99.90;;;;;;5090174;28;20016;-75
2022/02/15 12:14:16;;;;;;;9.00;1.20;;;8.90;99.90;;;;;;5094502;28;20078;-75
2022/02/15 12:16:52;;;;;;;1.35;1.20;;;9.00;99.90;;;;;;5106560;28;20020;-73
2022/02/15 12:19:27;;;;;;;1.40;1.20;;;9.00;99.90;;;;;;5094801;28;20035;-72
2022/02/15 12:21:55;;;;;;;3.55;1.58;;;9.10;99.90;;;;;;5108219;28;20024;-73
2022/02/15 12:24:22;;;;;;;2.50;1.48;;;9.20;99.90;;;;;;5115167;27;20020;-75
2022/02/15 12:26:47;;;;;;;4.30;1.40;;;9.30;99.90;;;;;;5108790;27;20022;-73
2022/02/15 12:29:13;;;;;;;2.28;1.30;;;9.40;99.90;;;;;;5115955;27;20053;-74
2022/02/15 12:31:40;;;;;;;2.85;1.40;;;9.60;99.90;;;;;;5115114;27;20049;-74
2022/02/15 12:34:06;;;;;;;1.27;1.17;;;9.60;99.90;;;;;;5110575;28;20491;-74
2022/02/15 12:36:33;;;;;;;1.88;1.27;;;9.60;99.90;;;;;;5098639;28;20051;-75
2022/02/15 12:38:59;;;;;;;2.58;1.48;;;9.40;99.90;;;;;;5122432;27;20422;-75
2022/02/15 12:41:24;;;;;;;1.88;1.60;;;9.20;99.90;;;;;;5105017;28;20016;-76
2022/02/15 12:43:58;;;;;;;2.13;1.50;;;9.00;99.90;;;;;;5123779;27;20026;-73
2022/02/15 12:46:24;;;;;;;1.30;1.00;;;8.90;99.90;;;;;;5118101;27;20495;-73
2022/02/15 12:48:50;;;;;;;2.08;1.52;;;8.90;99.90;;;;;;5114286;27;20717;-75
2022/02/15 12:51:16;;;;;;;3.45;1.77;;;9.00;99.90;;;;;;5106792;28;20415;-75
2022/02/15 12:53:52;;;;;;;4.35;1.83;;;9.10;99.90;;;;;;5113000;27;20054;-75
2022/02/15 12:56:20;;;;;;;2.33;1.40;;;9.20;99.90;;;;;;5094197;28;20027;-74
2022/02/15 12:58:48;;;;;;;4.00;1.30;;;9.20;99.90;;;;;;5123983;27;20076;-73
2022/02/15 13:01:15;;;;;;;4.10;1.52;;;9.30;99.90;;;;;;5111281;27;20099;-74
2022/02/15 13:03:44;;;;;;;1.73;1.42;;;9.30;99.90;;;;;;5101155;28;20016;-73